SKPC/PCR METAR and TAF weather

Enter ICAO airport designator
Station Type Date Time Source
SKPC METAR 2024/07/14 12:00 UTC NOAA

SKPC 141200Z 00000KT 4000 RA SCT010 23/23 Q1015


Station Type Date Time Source
SKPC Decoded METAR 2024/07/14 12:00 UTC NOAA

Puerto Carreno / A. Guauquea, Colombia (SKPC) 06-10N 067-30W
Jul 14, 2024 - 08:00 AM EDT / 2024.07.14 1200 UTC
Wind: Calm:0
Visibility: 2 mile(s):0
Sky conditions: partly cloudy
Weather: rain
Temperature: 73 F (23 C)
Dew Point: 73 F (23 C)
Relative Humidity: 100%
Pressure (altimeter): 29.97 in. Hg (1015 hPa)
ob: SKPC 141200Z 00000KT 4000 RA SCT010 23/23 Q1015
cycle: 12

Station Type Date Time Source
SKPC TAF UTC NOAA

Error!

Example: see airport list